Time;durP1;ratioP1;P1;durP2;ratioP2;P2;SDS_P1;SDS_P2;PMS_P1;PMS_P2;Temp;Humidity;BMP_temperature;BMP_pressure;BME280_temperature;BME280_humidity;BME280_pressure;Samples;Min_cycle;Max_cycle;Signal;HPM_P1;HPM_P2
2021/11/06 00:00:27;;;;;;;25.38;11.70;;;9.90;92.90;;;;;;5027092;28;20527;-60
2021/11/06 00:02:54;;;;;;;26.25;11.98;;;9.80;92.80;;;;;;5026945;28;20044;-61
2021/11/06 00:05:21;;;;;;;22.42;11.20;;;9.90;92.80;;;;;;5026552;28;20042;-59
2021/11/06 00:07:48;;;;;;;24.25;12.88;;;9.90;92.80;;;;;;5027000;28;20099;-60
2021/11/06 00:10:14;;;;;;;20.73;11.07;;;9.90;92.90;;;;;;5027195;28;20420;-59
2021/11/06 00:12:41;;;;;;;28.75;10.88;;;9.90;92.90;;;;;;5026572;28;20080;-59
2021/11/06 00:15:09;;;;;;;25.38;11.82;;;9.90;93.10;;;;;;5025986;28;20049;-60
2021/11/06 00:17:37;;;;;;;19.90;10.77;;;9.90;93.00;;;;;;5025784;28;20080;-60
2021/11/06 00:20:05;;;;;;;26.93;11.27;;;9.90;92.90;;;;;;4680398;28;10001389;-59
2021/11/06 00:22:33;;;;;;;21.00;10.70;;;9.90;92.90;;;;;;5027572;28;20092;-60
2021/11/06 00:25:01;;;;;;;25.95;10.15;;;9.90;92.90;;;;;;5027737;28;20041;-60
2021/11/06 00:27:27;;;;;;;18.63;10.07;;;9.90;92.80;;;;;;5028355;28;20053;-61
2021/11/06 00:29:54;;;;;;;23.08;9.55;;;9.80;92.80;;;;;;5027716;28;20144;-60
2021/11/06 00:32:21;;;;;;;18.33;9.43;;;9.80;92.80;;;;;;5027981;28;20408;-61
2021/11/06 00:34:48;;;;;;;21.08;9.25;;;9.80;92.80;;;;;;5028864;28;20075;-60
2021/11/06 00:37:16;;;;;;;17.63;8.80;;;9.80;92.80;;;;;;5029218;28;20148;-60
2021/11/06 00:39:43;;;;;;;15.70;8.45;;;9.80;92.80;;;;;;5028871;28;20481;-60
2021/11/06 00:42:10;;;;;;;17.50;9.20;;;9.80;92.80;;;;;;5027744;28;20443;-59
2021/11/06 00:44:36;;;;;;;15.48;7.65;;;9.70;92.80;;;;;;5027887;28;20049;-61
2021/11/06 00:47:04;;;;;;;18.10;7.45;;;9.70;92.80;;;;;;5029038;28;20049;-61
2021/11/06 00:49:30;;;;;;;13.25;6.68;;;9.70;92.80;;;;;;5028475;28;20050;-60
2021/11/06 00:51:58;;;;;;;19.60;8.85;;;9.60;92.70;;;;;;5027557;28;20049;-59
2021/11/06 00:54:25;;;;;;;19.45;7.55;;;9.60;92.70;;;;;;5027280;28;20057;-60
2021/11/06 00:56:52;;;;;;;12.00;6.07;;;9.60;93.00;;;;;;5027557;28;20136;-60
2021/11/06 00:59:19;;;;;;;19.85;8.57;;;9.50;92.70;;;;;;5028407;28;20049;-61
2021/11/06 01:01:46;;;;;;;15.52;8.38;;;9.50;92.70;;;;;;5027450;28;20140;-60
2021/11/06 01:04:13;;;;;;;20.73;7.32;;;9.40;92.70;;;;;;5028387;28;20076;-60
2021/11/06 01:06:39;;;;;;;15.95;7.70;;;9.40;92.70;;;;;;5028523;28;20049;-59
2021/11/06 01:09:06;;;;;;;19.65;7.47;;;9.30;92.80;;;;;;5028351;28;20076;-60
2021/11/06 01:11:34;;;;;;;21.63;7.93;;;9.30;92.80;;;;;;5027521;28;20118;-60
2021/11/06 01:14:02;;;;;;;17.83;7.97;;;9.30;92.90;;;;;;5028070;28;20085;-59
2021/11/06 01:16:28;;;;;;;16.10;7.68;;;9.30;93.00;;;;;;5028022;28;20092;-60
2021/11/06 01:18:55;;;;;;;18.80;10.18;;;9.30;93.00;;;;;;5028266;28;20046;-61
2021/11/06 01:21:22;;;;;;;18.17;8.35;;;9.30;93.00;;;;;;5027900;28;20056;-59
2021/11/06 01:23:49;;;;;;;16.98;8.88;;;9.30;93.10;;;;;;5028433;28;20389;-60
2021/11/06 01:26:16;;;;;;;12.73;6.93;;;9.40;93.10;;;;;;5026411;28;20136;-60
2021/11/06 01:28:43;;;;;;;16.25;7.82;;;9.30;93.10;;;;;;5027973;28;20578;-60
2021/11/06 01:31:10;;;;;;;17.00;8.50;;;9.30;93.10;;;;;;5027627;28;20050;-60
2021/11/06 01:33:37;;;;;;;16.90;9.18;;;9.30;93.20;;;;;;5026388;28;20045;-61
2021/11/06 01:36:04;;;;;;;21.90;8.02;;;9.30;93.20;;;;;;5027745;28;20524;-60
2021/11/06 01:38:31;;;;;;;14.82;7.68;;;9.40;93.20;;;;;;5027749;28;20077;-60
2021/11/06 01:40:57;;;;;;;17.25;7.30;;;9.40;93.20;;;;;;5027215;28;20053;-59
2021/11/06 01:43:24;;;;;;;19.10;7.25;;;9.40;93.10;;;;;;5026376;28;20073;-59
2021/11/06 01:45:59;;;;;;;14.98;7.18;;;9.40;93.00;;;;;;5023683;28;20148;-59
2021/11/06 01:48:27;;;;;;;14.82;6.22;;;9.50;93.10;;;;;;5027562;28;20488;-59
2021/11/06 01:50:55;;;;;;;20.92;6.82;;;9.50;93.00;;;;;;5027396;28;20069;-59
2021/11/06 01:53:22;;;;;;;18.40;7.35;;;9.50;93.00;;;;;;5027408;28;20087;-60
2021/11/06 01:55:53;;;;;;;12.77;5.85;;;9.50;92.90;;;;;;5007082;28;20188;-60
2021/11/06 01:58:20;;;;;;;16.30;6.63;;;9.60;92.80;;;;;;5027315;28;20091;-62
2021/11/06 02:00:47;;;;;;;15.90;5.88;;;9.60;92.80;;;;;;5026212;28;20073;-60
2021/11/06 02:03:15;;;;;;;14.02;5.55;;;9.60;92.70;;;;;;5027544;28;20045;-59
2021/11/06 02:05:42;;;;;;;14.90;6.07;;;9.60;92.70;;;;;;5026633;28;20132;-60
2021/11/06 02:08:10;;;;;;;14.73;5.72;;;9.70;92.70;;;;;;5027581;28;20489;-60
2021/11/06 02:10:37;;;;;;;13.98;6.03;;;9.70;92.60;;;;;;5026963;28;20061;-60
2021/11/06 02:13:04;;;;;;;13.43;6.20;;;9.70;92.60;;;;;;5026756;28;20531;-59
2021/11/06 02:15:31;;;;;;;17.10;6.45;;;9.70;92.60;;;;;;5027205;28;20076;-59
2021/11/06 02:17:57;;;;;;;9.73;5.43;;;9.70;92.60;;;;;;5025873;28;20061;-59
2021/11/06 02:20:24;;;;;;;11.95;5.35;;;9.80;92.60;;;;;;5027364;28;20487;-59
2021/11/06 02:22:51;;;;;;;15.50;5.10;;;9.80;92.50;;;;;;4677257;28;10000044;-60
2021/11/06 02:25:18;;;;;;;9.25;3.45;;;9.80;92.50;;;;;;5024517;28;20049;-60
2021/11/06 02:28:05;;;;;;;11.60;3.90;;;9.90;92.50;;;;;;5026897;28;20049;-60
2021/11/06 02:30:32;;;;;;;6.40;3.33;;;9.90;92.50;;;;;;5025606;28;20108;-60
2021/11/06 02:32:59;;;;;;;8.20;3.17;;;10.00;92.40;;;;;;5025351;28;20481;-59
2021/11/06 02:35:26;;;;;;;17.88;3.70;;;10.00;92.40;;;;;;5005986;28;20473;-59
2021/11/06 02:37:56;;;;;;;12.35;4.55;;;10.10;92.30;;;;;;5019197;28;20151;-59
2021/11/06 02:40:23;;;;;;;8.82;3.78;;;10.20;92.30;;;;;;5020170;28;20520;-59
2021/11/06 02:42:49;;;;;;;9.73;3.47;;;10.20;92.20;;;;;;5026269;28;20096;-59
2021/11/06 02:45:16;;;;;;;7.43;3.67;;;10.20;92.20;;;;;;5027042;28;20092;-60
2021/11/06 02:47:43;;;;;;;7.70;3.28;;;10.20;92.20;;;;;;5026963;28;20072;-60
2021/11/06 02:50:10;;;;;;;7.68;4.05;;;10.20;92.20;;;;;;5027242;28;20083;-59
2021/11/06 02:52:39;;;;;;;11.88;3.10;;;10.20;92.10;;;;;;5026352;28;20049;-60
2021/11/06 02:55:06;;;;;;;14.70;3.38;;;10.20;92.10;;;;;;5011273;28;20559;-59
2021/11/06 02:57:33;;;;;;;9.38;3.60;;;10.20;92.10;;;;;;4992703;28;20052;-58
2021/11/06 03:00:00;;;;;;;9.65;3.90;;;10.30;92.10;;;;;;5027043;28;20524;-60
2021/11/06 03:02:27;;;;;;;7.03;4.43;;;10.30;92.00;;;;;;5026316;28;20059;-59
2021/11/06 03:04:54;;;;;;;7.70;4.55;;;10.30;92.00;;;;;;5026811;28;20189;-60
2021/11/06 03:07:21;;;;;;;10.40;4.43;;;10.30;92.00;;;;;;5025353;28;20663;-61
2021/11/06 03:09:47;;;;;;;9.50;4.43;;;10.30;92.00;;;;;;5026423;28;20091;-60
2021/11/06 03:12:15;;;;;;;13.52;4.35;;;10.30;92.00;;;;;;5025557;28;20053;-59
2021/11/06 03:14:43;;;;;;;10.20;3.80;;;10.30;92.10;;;;;;5026431;28;20049;-59
2021/11/06 03:17:10;;;;;;;9.50;4.22;;;10.30;92.00;;;;;;5007669;28;20462;-60
2021/11/06 03:19:36;;;;;;;9.02;4.43;;;10.30;92.00;;;;;;5023372;28;20045;-60
2021/11/06 03:22:04;;;;;;;8.45;3.90;;;10.30;92.00;;;;;;5030224;28;20091;-59
2021/11/06 03:24:31;;;;;;;12.10;4.28;;;10.30;92.00;;;;;;5028741;28;20167;-58
2021/11/06 03:26:58;;;;;;;10.68;4.68;;;10.30;92.00;;;;;;5030331;28;20095;-60
2021/11/06 03:29:24;;;;;;;8.18;3.92;;;10.30;91.90;;;;;;5029853;28;20077;-59
2021/11/06 03:31:54;;;;;;;10.00;4.13;;;10.30;92.00;;;;;;5029915;28;20135;-60
2021/11/06 03:34:21;;;;;;;11.98;4.35;;;10.30;92.00;;;;;;5029601;28;20092;-61
2021/11/06 03:36:48;;;;;;;11.95;4.80;;;10.30;92.00;;;;;;5030332;28;20104;-60
2021/11/06 03:39:15;;;;;;;13.10;5.72;;;10.30;92.00;;;;;;5028441;28;20041;-60
2021/11/06 03:41:42;;;;;;;7.95;4.93;;;10.30;92.00;;;;;;5029889;28;20099;-59
2021/11/06 03:44:09;;;;;;;10.30;4.07;;;10.30;92.00;;;;;;5029847;28;20114;-60
2021/11/06 03:46:36;;;;;;;13.68;3.90;;;10.30;92.00;;;;;;5029675;28;20127;-59
2021/11/06 03:49:03;;;;;;;9.57;3.70;;;10.30;92.10;;;;;;5028614;28;20518;-60
2021/11/06 03:51:30;;;;;;;7.45;5.32;;;10.30;92.10;;;;;;5029422;28;20088;-59
2021/11/06 03:53:57;;;;;;;11.27;3.22;;;10.30;92.00;;;;;;5029890;28;20106;-60
2021/11/06 03:56:24;;;;;;;13.82;4.13;;;10.30;92.10;;;;;;5029198;28;20045;-59
2021/11/06 03:58:51;;;;;;;10.32;3.90;;;10.30;92.10;;;;;;5028420;28;20059;-59
2021/11/06 04:01:18;;;;;;;7.40;3.42;;;10.30;92.10;;;;;;5029045;28;20088;-60
2021/11/06 04:03:45;;;;;;;9.48;4.72;;;10.30;92.10;;;;;;5027147;28;20049;-60
2021/11/06 04:06:13;;;;;;;13.60;4.88;;;10.30;92.10;;;;;;5029533;28;20088;-59
2021/11/06 04:08:40;;;;;;;12.80;4.22;;;10.30;92.10;;;;;;5029346;28;20045;-61
2021/11/06 04:11:07;;;;;;;9.02;4.35;;;10.30;92.10;;;;;;5029083;28;20077;-59
2021/11/06 04:13:34;;;;;;;12.55;4.10;;;10.30;92.10;;;;;;5029201;28;20049;-61
2021/11/06 04:16:00;;;;;;;9.95;4.22;;;10.30;92.20;;;;;;5029297;28;20448;-59
2021/11/06 04:18:27;;;;;;;11.40;4.32;;;10.20;92.40;;;;;;5029375;28;20045;-59
2021/11/06 04:20:54;;;;;;;11.32;4.88;;;10.20;92.70;;;;;;5029448;28;20140;-61
2021/11/06 04:23:21;;;;;;;10.50;4.75;;;10.10;92.50;;;;;;5029025;28;20933;-60
2021/11/06 04:25:48;;;;;;;9.95;4.53;;;10.20;92.60;;;;;;5029009;28;20107;-60
2021/11/06 04:28:14;;;;;;;10.60;3.92;;;10.10;92.60;;;;;;5029224;28;20472;-60
2021/11/06 04:30:41;;;;;;;10.18;4.25;;;10.20;92.60;;;;;;5028170;28;20057;-59
2021/11/06 04:33:08;;;;;;;13.82;4.72;;;10.20;92.60;;;;;;5028789;28;20104;-59
2021/11/06 04:35:35;;;;;;;11.50;5.30;;;10.20;92.70;;;;;;5028690;28;20050;-60
2021/11/06 04:38:01;;;;;;;9.63;4.45;;;10.20;92.60;;;;;;5028864;28;20045;-59
2021/11/06 04:40:28;;;;;;;10.52;4.25;;;10.20;92.70;;;;;;5028664;28;20049;-60
2021/11/06 04:42:55;;;;;;;9.98;4.10;;;10.20;92.70;;;;;;5028527;28;20049;-60
2021/11/06 04:45:22;;;;;;;8.60;5.35;;;10.20;92.70;;;;;;5028579;28;20495;-60
2021/11/06 04:47:49;;;;;;;14.95;5.20;;;10.20;92.60;;;;;;5028539;28;20045;-60
2021/11/06 04:50:16;;;;;;;11.48;4.80;;;10.20;92.70;;;;;;5028693;28;20145;-61
2021/11/06 04:52:42;;;;;;;12.13;4.90;;;10.20;92.60;;;;;;5028400;28;20107;-59
2021/11/06 04:55:11;;;;;;;11.13;4.47;;;10.20;92.70;;;;;;5028791;28;20136;-60
2021/11/06 04:57:38;;;;;;;8.25;4.55;;;10.20;92.70;;;;;;5028163;28;20087;-60
2021/11/06 05:00:07;;;;;;;10.52;4.35;;;10.20;92.70;;;;;;5027281;28;20049;-60
2021/11/06 05:02:33;;;;;;;9.85;4.68;;;10.20;92.60;;;;;;5028003;28;20045;-59
2021/11/06 05:05:00;;;;;;;9.38;5.30;;;10.20;92.70;;;;;;5028336;28;20046;-59
2021/11/06 05:07:27;;;;;;;11.48;6.00;;;10.20;92.70;;;;;;5027914;28;20096;-59
2021/11/06 05:09:55;;;;;;;9.07;4.03;;;10.20;92.80;;;;;;5028328;28;20496;-59
2021/11/06 05:12:22;;;;;;;9.95;4.53;;;10.20;92.70;;;;;;5027789;28;20397;-61
2021/11/06 05:14:50;;;;;;;9.20;5.00;;;10.20;92.80;;;;;;5028128;28;20073;-60
2021/11/06 05:17:18;;;;;;;7.78;4.28;;;10.20;92.70;;;;;;5028089;28;20136;-59
2021/11/06 05:19:46;;;;;;;10.40;5.20;;;10.10;92.70;;;;;;5028012;28;20053;-61
2021/11/06 05:22:13;;;;;;;7.65;4.93;;;10.10;92.70;;;;;;5028010;28;20080;-61
2021/11/06 05:24:40;;;;;;;12.10;4.97;;;10.10;92.70;;;;;;5027658;28;20104;-59
2021/11/06 05:27:07;;;;;;;7.68;3.63;;;10.20;92.60;;;;;;5028157;28;20064;-60
2021/11/06 05:29:50;;;;;;;11.90;5.13;;;10.10;92.90;;;;;;5026357;28;20587;-60
2021/11/06 05:32:17;;;;;;;9.80;4.35;;;10.10;92.70;;;;;;5027798;28;20053;-60
2021/11/06 05:34:44;;;;;;;11.15;4.75;;;10.20;92.90;;;;;;5027581;28;20041;-59
2021/11/06 05:37:11;;;;;;;10.50;4.38;;;10.10;92.60;;;;;;5028090;28;20533;-60
2021/11/06 05:39:38;;;;;;;9.95;4.53;;;10.10;92.60;;;;;;5027415;28;20053;-60
2021/11/06 05:42:05;;;;;;;10.80;4.30;;;10.10;92.70;;;;;;5025503;28;20053;-60
2021/11/06 05:44:32;;;;;;;7.68;4.47;;;10.10;92.60;;;;;;5027304;28;20045;-60
2021/11/06 05:46:58;;;;;;;8.27;3.85;;;10.10;92.60;;;;;;5026595;28;20049;-59
2021/11/06 05:49:25;;;;;;;12.15;4.68;;;10.20;92.60;;;;;;5027296;28;20046;-61
2021/11/06 05:51:53;;;;;;;9.32;4.43;;;10.20;92.60;;;;;;5027561;28;20057;-59
2021/11/06 05:54:19;;;;;;;10.88;4.47;;;10.10;92.60;;;;;;5027325;28;20381;-59
2021/11/06 05:56:46;;;;;;;11.52;4.47;;;10.10;92.60;;;;;;5027817;28;20072;-59
2021/11/06 05:59:13;;;;;;;10.05;3.20;;;10.10;92.60;;;;;;5027193;28;20071;-59
2021/11/06 06:01:40;;;;;;;8.38;3.80;;;10.10;92.60;;;;;;5025960;28;20049;-60
2021/11/06 06:04:07;;;;;;;11.27;5.40;;;10.00;92.60;;;;;;5027193;28;20045;-59
2021/11/06 06:06:34;;;;;;;10.27;3.85;;;10.10;92.50;;;;;;5027257;28;20057;-60
2021/11/06 06:09:00;;;;;;;12.32;3.88;;;10.00;92.90;;;;;;5026210;28;20038;-59
2021/11/06 06:11:27;;;;;;;11.07;3.65;;;10.00;92.60;;;;;;5027479;28;20103;-61
2021/11/06 06:13:56;;;;;;;9.15;3.72;;;10.00;92.70;;;;;;5026048;28;20061;-59
2021/11/06 06:16:23;;;;;;;5.82;3.50;;;10.00;92.70;;;;;;5006372;28;20543;-59
2021/11/06 06:18:50;;;;;;;8.48;3.80;;;9.90;92.60;;;;;;5006428;28;20053;-59
2021/11/06 06:21:16;;;;;;;7.65;3.30;;;9.90;92.60;;;;;;5027052;28;20041;-60
2021/11/06 06:23:44;;;;;;;8.32;3.58;;;9.90;92.70;;;;;;5027628;28;20073;-59
2021/11/06 06:26:11;;;;;;;8.05;3.75;;;9.90;92.60;;;;;;5025739;28;20103;-60
2021/11/06 06:28:37;;;;;;;20.80;6.28;;;9.90;92.70;;;;;;5025752;28;20057;-59
2021/11/06 06:31:05;;;;;;;11.73;3.88;;;9.90;92.80;;;;;;5025578;28;20057;-59
2021/11/06 06:33:32;;;;;;;7.70;2.90;;;9.80;92.80;;;;;;5026747;28;20096;-60
2021/11/06 06:35:59;;;;;;;9.57;3.88;;;9.80;92.80;;;;;;5027025;28;20067;-59
2021/11/06 06:38:26;;;;;;;10.82;3.97;;;9.80;93.00;;;;;;5026973;28;20053;-60
2021/11/06 06:40:53;;;;;;;9.52;3.75;;;9.80;92.70;;;;;;5026844;28;20096;-60
2021/11/06 06:43:19;;;;;;;9.10;3.17;;;9.80;93.00;;;;;;5026657;28;20145;-60
2021/11/06 06:45:46;;;;;;;10.55;3.40;;;9.70;92.90;;;;;;5026938;28;20065;-59
2021/11/06 06:48:13;;;;;;;10.25;3.30;;;9.80;92.80;;;;;;5027217;28;20049;-59
2021/11/06 06:50:45;;;;;;;11.13;3.25;;;9.80;93.10;;;;;;5026717;28;20037;-59
2021/11/06 06:53:13;;;;;;;9.85;3.40;;;9.70;93.00;;;;;;5027695;28;20060;-59
2021/11/06 06:55:40;;;;;;;6.45;2.78;;;9.70;93.20;;;;;;5030387;28;20140;-60
2021/11/06 06:58:07;;;;;;;4.55;2.53;;;9.80;93.20;;;;;;5031145;28;20107;-59
2021/11/06 07:00:34;;;;;;;8.25;3.58;;;9.70;93.00;;;;;;5029663;28;20136;-59
2021/11/06 07:03:00;;;;;;;14.77;4.60;;;9.70;93.00;;;;;;5030532;28;20041;-59
2021/11/06 07:05:27;;;;;;;9.15;3.13;;;9.70;93.00;;;;;;5030190;28;20136;-59
2021/11/06 07:07:56;;;;;;;5.68;2.30;;;9.70;93.00;;;;;;5029255;28;20132;-61
2021/11/06 07:10:24;;;;;;;7.35;3.17;;;9.70;93.10;;;;;;5029322;28;20060;-59
2021/11/06 07:12:51;;;;;;;5.88;2.42;;;9.70;93.10;;;;;;5030235;28;20049;-60
2021/11/06 07:15:17;;;;;;;5.03;2.55;;;9.70;93.10;;;;;;5029415;28;20107;-60
2021/11/06 07:17:44;;;;;;;10.60;3.47;;;9.70;93.10;;;;;;5029137;28;20076;-59
2021/11/06 07:20:11;;;;;;;4.82;2.25;;;9.80;93.20;;;;;;5030451;28;20072;-60
2021/11/06 07:22:38;;;;;;;9.00;2.85;;;9.80;93.10;;;;;;5029700;28;20045;-60
2021/11/06 07:25:05;;;;;;;9.80;2.15;;;9.80;93.10;;;;;;5030158;28;20049;-60
2021/11/06 07:27:34;;;;;;;7.43;2.63;;;9.80;93.10;;;;;;5029027;28;20041;-61
2021/11/06 07:30:01;;;;;;;7.28;1.85;;;9.90;93.10;;;;;;5029617;28;20099;-60
2021/11/06 07:32:28;;;;;;;12.13;3.47;;;9.90;93.00;;;;;;5028892;28;20045;-61
2021/11/06 07:34:54;;;;;;;4.10;2.15;;;9.90;93.10;;;;;;5029505;28;20053;-60
2021/11/06 07:37:21;;;;;;;12.55;2.05;;;9.90;93.00;;;;;;5028085;28;20053;-60
2021/11/06 07:39:48;;;;;;;8.38;2.38;;;9.90;93.00;;;;;;5028312;28;20095;-59
2021/11/06 07:42:15;;;;;;;4.45;2.67;;;10.00;92.90;;;;;;5029260;28;20041;-60
2021/11/06 07:44:42;;;;;;;9.05;2.58;;;10.00;92.90;;;;;;5029302;28;20075;-61
2021/11/06 07:47:09;;;;;;;4.53;2.15;;;10.00;92.90;;;;;;5029190;28;20057;-60
2021/11/06 07:49:35;;;;;;;7.38;2.22;;;10.00;92.90;;;;;;5029255;28;20049;-59
2021/11/06 07:52:02;;;;;;;4.03;1.95;;;10.00;92.80;;;;;;5029381;28;20088;-60
2021/11/06 07:54:29;;;;;;;4.95;2.05;;;10.10;92.80;;;;;;5028210;28;20087;-59
2021/11/06 07:56:57;;;;;;;5.55;2.08;;;10.10;92.80;;;;;;5026789;28;20056;-60
2021/11/06 07:59:24;;;;;;;4.82;2.17;;;10.10;92.80;;;;;;5028541;28;20083;-61
2021/11/06 08:01:52;;;;;;;5.95;2.03;;;10.10;92.90;;;;;;5028747;28;20042;-60
2021/11/06 08:04:19;;;;;;;5.73;2.50;;;10.10;92.80;;;;;;4679804;28;10000406;-60
2021/11/06 08:06:45;;;;;;;5.00;2.22;;;10.10;92.90;;;;;;5027157;28;20085;-59
2021/11/06 08:09:13;;;;;;;6.28;1.90;;;10.20;92.80;;;;;;5026806;28;20128;-59
2021/11/06 08:11:40;;;;;;;5.45;1.80;;;10.20;92.80;;;;;;5026725;28;20677;-58
2021/11/06 08:14:07;;;;;;;2.78;1.73;;;10.20;92.80;;;;;;5026173;28;20103;-58
2021/11/06 08:16:34;;;;;;;5.07;1.80;;;10.30;92.70;;;;;;5026200;28;20100;-59
2021/11/06 08:19:00;;;;;;;6.10;1.80;;;10.30;92.70;;;;;;5026703;28;20407;-60
2021/11/06 08:21:27;;;;;;;2.67;1.70;;;10.30;92.70;;;;;;5026198;28;20045;-58
2021/11/06 08:23:54;;;;;;;3.25;1.60;;;10.30;92.60;;;;;;5026285;28;20152;-60
2021/11/06 08:26:21;;;;;;;5.25;1.95;;;10.40;92.60;;;;;;5025975;28;20053;-60
2021/11/06 08:28:48;;;;;;;5.65;1.95;;;10.40;92.60;;;;;;5025874;28;20626;-59
2021/11/06 08:31:15;;;;;;;5.13;1.65;;;10.50;92.60;;;;;;5024764;28;20139;-59
2021/11/06 08:33:41;;;;;;;2.25;1.52;;;10.50;92.60;;;;;;5025375;28;21473;-61
2021/11/06 08:36:14;;;;;;;8.48;2.28;;;10.60;92.50;;;;;;5022038;28;20349;-60
2021/11/06 08:38:41;;;;;;;4.15;1.67;;;10.60;92.50;;;;;;5024991;28;20080;-59
2021/11/06 08:41:08;;;;;;;2.60;1.48;;;10.70;92.40;;;;;;5025573;28;20053;-59
2021/11/06 08:43:35;;;;;;;3.53;1.33;;;10.70;92.30;;;;;;5025435;28;20080;-60
2021/11/06 08:46:04;;;;;;;4.90;1.65;;;10.80;92.30;;;;;;5025439;28;20049;-60
2021/11/06 08:48:31;;;;;;;2.40;1.20;;;10.90;92.30;;;;;;5025860;28;20566;-60
2021/11/06 08:50:59;;;;;;;3.00;1.30;;;10.90;92.20;;;;;;5025732;28;20049;-59
2021/11/06 08:53:26;;;;;;;2.60;1.10;;;10.90;92.20;;;;;;5025421;28;20445;-59
2021/11/06 08:55:53;;;;;;;5.25;1.60;;;10.90;92.10;;;;;;5020921;28;20076;-59
2021/11/06 08:58:20;;;;;;;3.97;1.48;;;11.00;92.10;;;;;;5025244;28;20053;-59
2021/11/06 09:00:48;;;;;;;3.97;1.50;;;11.00;91.90;;;;;;5025350;28;20548;-60
2021/11/06 09:03:20;;;;;;;4.63;1.70;;;11.10;91.90;;;;;;5023958;28;20053;-60
2021/11/06 09:05:50;;;;;;;2.90;1.40;;;11.10;91.70;;;;;;5021172;28;20037;-58
2021/11/06 09:08:23;;;;;;;3.20;1.50;;;11.10;91.80;;;;;;5026002;28;20087;-60
2021/11/06 09:10:50;;;;;;;2.92;1.13;;;11.10;91.70;;;;;;5023695;28;20038;-59
2021/11/06 09:13:17;;;;;;;6.35;1.58;;;11.10;91.80;;;;;;5025500;28;20103;-59
2021/11/06 09:15:44;;;;;;;2.85;1.67;;;11.10;91.70;;;;;;5024782;28;20072;-59
2021/11/06 09:18:11;;;;;;;3.28;1.42;;;11.10;91.60;;;;;;5024671;28;20045;-59
2021/11/06 09:20:40;;;;;;;3.15;1.20;;;11.10;91.50;;;;;;5024177;28;20041;-57
2021/11/06 09:23:09;;;;;;;2.25;0.98;;;11.10;91.60;;;;;;5025054;28;20045;-58
2021/11/06 09:25:36;;;;;;;2.72;1.33;;;11.10;91.60;;;;;;5011777;28;20488;-58
2021/11/06 09:28:04;;;;;;;3.28;1.50;;;11.10;91.60;;;;;;5025385;28;20041;-57
2021/11/06 09:30:30;;;;;;;3.60;1.55;;;11.20;91.70;;;;;;5020880;28;20089;-56
2021/11/06 09:32:57;;;;;;;4.43;1.40;;;11.10;91.40;;;;;;5016527;28;20041;-57
2021/11/06 09:35:24;;;;;;;3.78;1.20;;;11.10;91.60;;;;;;5013865;28;20106;-56
2021/11/06 09:37:51;;;;;;;2.92;0.82;;;11.20;91.70;;;;;;5023760;28;20046;-58
2021/11/06 09:40:18;;;;;;;2.38;1.17;;;11.20;91.40;;;;;;5019633;28;20073;-56
2021/11/06 09:42:45;;;;;;;7.78;1.50;;;11.30;91.70;;;;;;5024161;28;20053;-55
2021/11/06 09:45:13;;;;;;;3.80;1.45;;;11.30;91.50;;;;;;5025057;28;20092;-55
2021/11/06 09:47:43;;;;;;;6.35;1.15;;;11.40;91.40;;;;;;5026257;28;20045;-58
2021/11/06 09:50:12;;;;;;;5.20;1.58;;;11.40;91.10;;;;;;5025713;28;20133;-55
2021/11/06 09:52:38;;;;;;;10.43;1.38;;;11.50;91.20;;;;;;5026587;28;20108;-56
2021/11/06 09:55:06;;;;;;;5.50;1.75;;;11.50;91.20;;;;;;5027201;28;20057;-55
2021/11/06 09:57:33;;;;;;;17.10;2.15;;;11.50;91.20;;;;;;5026575;28;20103;-55
2021/11/06 09:59:59;;;;;;;4.15;1.85;;;11.60;91.10;;;;;;5026844;28;20120;-54
2021/11/06 10:02:26;;;;;;;3.80;1.65;;;11.70;91.10;;;;;;5026277;28;20052;-55
2021/11/06 10:04:53;;;;;;;3.45;1.30;;;11.80;90.70;;;;;;5027258;28;20046;-56
2021/11/06 10:07:21;;;;;;;5.25;1.38;;;11.90;90.70;;;;;;5025789;28;20291;-56
2021/11/06 10:10:01;;;;;;;3.42;1.17;;;11.90;90.70;;;;;;5026758;28;20132;-58
2021/11/06 10:12:44;;;;;;;3.20;1.00;;;11.90;90.00;;;;;;5024059;28;20552;-57
2021/11/06 10:15:10;;;;;;;4.82;1.65;;;11.90;90.50;;;;;;5024697;28;20144;-56
2021/11/06 10:17:37;;;;;;;7.63;1.60;;;11.90;90.40;;;;;;5024534;28;20132;-59
2021/11/06 10:20:36;;;;;;;5.97;1.30;;;12.00;90.40;;;;;;5023491;28;20087;-56
2021/11/06 10:23:05;;;;;;;6.15;1.30;;;11.90;90.00;;;;;;5024071;28;20045;-56
2021/11/06 10:25:37;;;;;;;8.02;1.98;;;12.00;90.40;;;;;;5024207;28;20445;-57
2021/11/06 10:28:06;;;;;;;2.42;0.93;;;12.00;90.30;;;;;;5028221;28;20049;-57
2021/11/06 10:30:38;;;;;;;3.03;1.13;;;12.10;90.40;;;;;;5029474;28;20112;-58
2021/11/06 10:33:12;;;;;;;3.83;1.20;;;12.10;90.30;;;;;;5029003;28;20099;-58
2021/11/06 10:35:46;;;;;;;2.22;1.15;;;12.10;90.00;;;;;;5028142;28;20053;-56
2021/11/06 10:38:17;;;;;;;3.78;1.75;;;12.20;90.10;;;;;;5030266;28;20046;-57
2021/11/06 10:41:02;;;;;;;2.35;1.45;;;12.20;90.20;;;;;;5030103;28;20505;-57
2021/11/06 10:43:31;;;;;;;6.10;1.83;;;12.30;89.60;;;;;;5026978;28;20053;-56
2021/11/06 10:45:59;;;;;;;5.10;1.45;;;12.40;89.90;;;;;;5027906;28;20136;-56
2021/11/06 10:48:32;;;;;;;5.85;1.23;;;12.50;88.90;;;;;;5027099;28;20055;-56
2021/11/06 10:51:03;;;;;;;3.97;0.90;;;12.50;89.70;;;;;;5015728;28;20575;-58
2021/11/06 10:53:30;;;;;;;5.97;1.48;;;12.60;88.50;;;;;;5024519;28;20085;-55
2021/11/06 10:55:58;;;;;;;6.95;1.15;;;12.50;88.60;;;;;;5026334;28;20100;-57
2021/11/06 10:58:28;;;;;;;3.50;1.00;;;12.50;89.30;;;;;;5026957;28;20061;-56
2021/11/06 11:00:57;;;;;;;5.78;1.65;;;12.50;88.50;;;;;;5028257;28;20081;-59
2021/11/06 11:03:31;;;;;;;2.53;1.40;;;12.50;88.70;;;;;;5027711;28;20508;-57
2021/11/06 11:05:59;;;;;;;9.38;1.50;;;12.60;88.60;;;;;;5027516;28;20084;-56
2021/11/06 11:08:33;;;;;;;6.10;1.42;;;12.60;89.00;;;;;;5027981;28;20069;-57
2021/11/06 11:11:05;;;;;;;3.25;1.27;;;12.60;88.20;;;;;;5027500;28;20556;-57
2021/11/06 11:13:32;;;;;;;4.55;1.02;;;12.60;88.60;;;;;;5026286;28;20108;-57
2021/11/06 11:16:15;;;;;;;3.70;1.23;;;12.60;89.10;;;;;;5027503;28;20056;-55
2021/11/06 11:18:42;;;;;;;4.07;1.10;;;12.60;88.70;;;;;;5027921;28;20133;-57
2021/11/06 11:21:25;;;;;;;3.97;0.95;;;12.50;89.20;;;;;;5026968;28;20179;-55
2021/11/06 11:23:56;;;;;;;14.70;2.00;;;12.60;88.30;;;;;;5026564;28;20496;-56
2021/11/06 11:26:26;;;;;;;3.05;1.20;;;12.50;88.90;;;;;;5027120;28;20558;-55
2021/11/06 11:28:52;;;;;;;2.28;1.33;;;12.50;89.20;;;;;;5027489;28;20143;-55
2021/11/06 11:31:21;;;;;;;12.10;1.20;;;12.50;89.10;;;;;;5026069;28;20166;-58
2021/11/06 11:33:48;;;;;;;6.03;1.40;;;12.50;89.40;;;;;;5027182;28;20088;-58
2021/11/06 11:36:17;;;;;;;3.20;1.05;;;12.60;89.50;;;;;;5026946;28;20049;-57
2021/11/06 11:38:44;;;;;;;5.43;2.78;;;12.60;88.40;;;;;;5027018;28;20081;-58
2021/11/06 11:41:30;;;;;;;2.83;1.13;;;12.60;88.20;;;;;;5022973;28;20053;-57
2021/11/06 11:44:17;;;;;;;2.72;1.10;;;12.70;88.00;;;;;;5027279;28;20681;-55
2021/11/06 11:46:56;;;;;;;3.67;1.10;;;12.70;87.30;;;;;;5019443;28;20527;-56
2021/11/06 11:49:30;;;;;;;2.00;0.88;;;12.70;88.00;;;;;;4991447;28;20164;-57
2021/11/06 11:52:26;;;;;;;2.75;1.10;;;12.80;87.80;;;;;;5022955;28;20045;-57
2021/11/06 11:54:59;;;;;;;5.13;1.13;;;12.90;86.20;;;;;;5027012;28;20140;-57
2021/11/06 11:57:25;;;;;;;1.25;0.80;;;12.90;86.90;;;;;;5026411;28;20049;-56
2021/11/06 11:59:53;;;;;;;6.55;1.08;;;12.90;87.00;;;;;;5027128;28;20087;-57
2021/11/06 12:02:27;;;;;;;2.25;0.90;;;13.00;87.80;;;;;;5025981;28;20166;-56
2021/11/06 12:05:24;;;;;;;2.72;0.73;;;13.00;86.60;;;;;;5006660;28;20045;-56
2021/11/06 12:08:10;;;;;;;2.30;0.90;;;13.00;86.00;;;;;;5011160;28;20095;-56
2021/11/06 12:10:44;;;;;;;3.53;0.80;;;13.00;84.90;;;;;;5025633;28;20080;-57
2021/11/06 12:13:26;;;;;;;1.63;1.00;;;13.00;85.70;;;;;;5017247;28;20561;-57
2021/11/06 12:16:12;;;;;;;6.30;0.98;;;13.00;85.60;;;;;;5019477;28;20393;-58
2021/11/06 12:18:58;;;;;;;2.67;1.13;;;13.10;87.00;;;;;;5024367;28;20077;-57
2021/11/06 12:21:27;;;;;;;3.95;0.90;;;13.10;85.70;;;;;;5020844;28;20081;-57
2021/11/06 12:24:09;;;;;;;2.40;1.13;;;13.20;86.50;;;;;;5018246;28;20125;-59
2021/11/06 12:26:53;;;;;;;3.25;1.00;;;13.20;84.90;;;;;;5022838;28;20081;-57
2021/11/06 12:29:20;;;;;;;3.60;0.90;;;13.30;83.80;;;;;;5021280;28;20108;-56
2021/11/06 12:31:48;;;;;;;1.48;0.63;;;13.20;86.00;;;;;;5026416;28;20049;-55
2021/11/06 12:34:49;;;;;;;5.10;1.85;;;13.20;84.70;;;;;;5026421;28;20100;-55
2021/11/06 12:37:37;;;;;;;4.72;1.00;;;13.20;82.90;;;;;;5026230;28;20042;-54
2021/11/06 12:40:05;;;;;;;3.63;0.95;;;13.20;84.00;;;;;;5026193;28;20053;-55
2021/11/06 12:42:32;;;;;;;3.00;1.10;;;13.20;85.60;;;;;;5024946;28;20710;-55
2021/11/06 12:45:06;;;;;;;2.85;0.88;;;13.20;84.30;;;;;;5025897;28;20362;-55
2021/11/06 12:47:34;;;;;;;5.20;0.90;;;13.20;84.20;;;;;;5025534;28;20049;-55
2021/11/06 12:50:17;;;;;;;5.45;1.23;;;13.20;85.30;;;;;;5024208;28;20057;-57
2021/11/06 12:52:44;;;;;;;2.90;0.60;;;13.20;83.90;;;;;;5025344;28;20076;-58